Sarapul, Russia
Current Conditions -  °F | °C
As of 11:30 AM on Tuesday 21 Oct 2014 (Local Time) from UWKE Reporting Station
Overcast Overcast  
Wind Chill: 13°   Ceiling: 800
Heat Index: 25°   Visibility: 6mi
Dew Point: 23°   Wind: 13mph
Humidity: 93%   Direction: 90°E
Pressure: 29.59"   Gusts: NA
Location:  56.47°N, 53.8°E
Report Text: UWKE 210730Z 09006MPS 9999 OVC008 M04/M05 Q1002 NOSIG RMK QFE735/0980 03090070
Loading
Personal Weather Stations






























Interactive Weather Map
Tropical Storm Tracking
New forecast layout! Learn more

10-Day Weather Forecast

Advertisements
Track Severe Weather on mobile